Time;durP1;ratioP1;P1;durP2;ratioP2;P2;SDS_P1;SDS_P2;PMS_P1;PMS_P2;Temp;Humidity;BMP_temperature;BMP_pressure;BME280_temperature;BME280_humidity;BME280_pressure;Samples;Min_cycle;Max_cycle;Signal;HPM_P1;HPM_P2
2022/12/18 00:02:44;;;;;;;28.47;11.93;;;;;;;-7.51;100.00;102514.72;6050505;28;20021;-66
2022/12/18 00:05:49;;;;;;;27.33;12.87;;;;;;;-7.70;100.00;102497.41;6051244;28;20644;-66
2022/12/18 00:08:44;;;;;;;26.30;11.48;;;;;;;-7.74;100.00;102503.38;6051458;28;20404;-66
2022/12/18 00:11:39;;;;;;;38.07;15.10;;;;;;;-7.73;100.00;102507.69;6051393;28;20026;-64
2022/12/18 00:14:35;;;;;;;31.60;13.07;;;;;;;-7.66;100.00;102529.22;6050062;28;20356;-65
2022/12/18 00:17:30;;;;;;;35.67;12.87;;;;;;;-7.74;100.00;102525.72;6051106;28;20034;-64
2022/12/18 00:20:25;;;;;;;37.40;16.23;;;;;;;-7.79;100.00;102533.38;6050987;28;20354;-66
2022/12/18 00:23:21;;;;;;;32.00;11.68;;;;;;;-7.80;100.00;102530.78;6049865;28;20495;-65
2022/12/18 00:26:21;;;;;;;20.93;8.20;;;;;;;-7.87;100.00;102524.72;6051051;28;20435;-65
2022/12/18 00:29:17;;;;;;;39.83;12.90;;;;;;;-7.75;100.00;102540.28;6050387;28;20038;-64
2022/12/18 00:32:12;;;;;;;23.97;8.63;;;;;;;-7.76;100.00;102543.69;6049896;28;20037;-65
2022/12/18 00:35:08;;;;;;;28.50;12.23;;;;;;;-7.78;100.00;102545.41;6050681;28;20283;-66
2022/12/18 00:38:03;;;;;;;24.65;10.45;;;;;;;-7.89;100.00;102532.44;6050954;28;20117;-65
2022/12/18 00:40:58;;;;;;;24.37;11.13;;;;;;;-7.91;100.00;102517.81;6050727;28;20041;-66
2022/12/18 00:43:53;;;;;;;25.30;10.13;;;;;;;-7.85;100.00;102534.16;6049787;28;20148;-65
2022/12/18 00:46:49;;;;;;;28.37;10.80;;;;;;;-7.88;100.00;102535.88;6063559;28;20041;-65
2022/12/18 00:49:44;;;;;;;29.25;12.32;;;;;;;-7.82;100.00;102559.06;6050246;28;20434;-67
2022/12/18 00:52:40;;;;;;;28.83;13.00;;;;;;;-7.95;100.00;102546.94;6049550;28;20045;-67
2022/12/18 00:55:37;;;;;;;31.00;11.60;;;;;;;-7.79;100.00;102548.81;6050358;28;20029;-68
2022/12/18 00:58:32;;;;;;;28.65;12.20;;;;;;;-7.68;100.00;102542.06;6050414;28;20034;-67
2022/12/18 01:01:32;;;;;;;23.02;8.25;;;;;;;-7.62;100.00;102547.25;6049947;28;20558;-66
2022/12/18 01:04:32;;;;;;;26.98;10.77;;;;;;;-7.60;100.00;102540.41;6049154;28;20060;-67
2022/12/18 01:07:27;;;;;;;30.85;13.30;;;;;;;-7.54;100.00;102550.75;6050271;28;20522;-64
2022/12/18 01:10:23;;;;;;;34.60;12.70;;;;;;;-7.60;100.00;102550.69;6049750;28;20026;-67
2022/12/18 01:13:18;;;;;;;32.38;12.38;;;;;;;-7.77;100.00;102554.81;6049467;28;20022;-67
2022/12/18 01:16:15;;;;;;;38.33;15.83;;;;;;;-7.99;100.00;102543.47;6049763;28;20044;-67
2022/12/18 01:19:10;;;;;;;35.00;13.45;;;;;;;-8.02;100.00;102552.88;6049340;28;20042;-65
2022/12/18 01:22:06;;;;;;;28.53;11.97;;;;;;;-8.10;100.00;102549.38;6049210;28;20128;-67
2022/12/18 01:25:02;;;;;;;33.30;13.57;;;;;;;-8.02;100.00;102576.03;6049243;28;20026;-67
2022/12/18 01:27:57;;;;;;;44.45;15.50;;;;;;;-8.08;100.00;102566.53;6049592;28;20042;-64
2022/12/18 01:30:52;;;;;;;35.23;13.63;;;;;;;-8.10;100.00;102562.22;6049608;28;20062;-65
2022/12/18 01:33:48;;;;;;;39.30;16.10;;;;;;;-8.11;100.00;102555.34;6048239;28;20049;-66
2022/12/18 01:36:44;;;;;;;42.42;16.23;;;;;;;-8.10;100.00;102567.38;6049725;28;20115;-65
2022/12/18 01:39:39;;;;;;;32.83;12.27;;;;;;;-8.28;100.00;102551.75;6049559;28;20040;-64
2022/12/18 01:42:34;;;;;;;30.80;12.40;;;;;;;-8.29;100.00;102570.63;6048682;28;20030;-67
2022/12/18 01:45:31;;;;;;;32.47;12.10;;;;;;;-8.42;100.00;102564.44;6049532;28;20276;-66
2022/12/18 01:48:26;;;;;;;36.88;14.65;;;;;;;-8.48;100.00;102572.13;6032465;28;20265;-66
2022/12/18 01:51:22;;;;;;;42.30;15.97;;;;;;;-8.44;100.00;102565.28;6049051;28;20084;-65
2022/12/18 01:54:17;;;;;;;40.92;15.68;;;;;;;-8.42;100.00;102563.63;6064324;28;20372;-65
2022/12/18 01:57:13;;;;;;;39.40;17.02;;;;;;;-8.42;100.00;102561.88;6072660;28;20391;-66
2022/12/18 02:00:15;;;;;;;21.92;8.93;;;;;;;-8.48;100.00;102549.81;6072488;28;20037;-65
2022/12/18 02:03:11;;;;;;;33.60;12.00;;;;;;;-8.47;100.00;102564.41;6056423;28;20030;-65
2022/12/18 02:06:12;;;;;;;34.63;14.68;;;;;;;-8.53;100.00;102572.03;6057260;28;20463;-67
2022/12/18 02:09:14;;;;;;;31.88;13.35;;;;;;;-8.60;100.00;102562.53;6056793;28;20042;-67
2022/12/18 02:12:19;;;;;;;31.45;12.55;;;;;;;-8.58;100.00;102577.97;6038543;28;20034;-67
2022/12/18 02:15:31;;;;;;;23.65;10.90;;;;;;;-8.62;100.00;102577.09;6056973;28;20042;-66
2022/12/18 02:18:45;;;;;;;41.72;15.52;;;;;;;-8.65;100.00;102571.03;6056019;28;20041;-68
2022/12/18 02:22:06;;;;;;;34.92;15.20;;;;;;;-8.88;100.00;102533.88;6038863;28;20276;-65
2022/12/18 02:25:17;;;;;;;37.40;14.48;;;;;;;-8.69;100.00;102567.53;6056777;28;20116;-66
2022/12/18 02:28:13;;;;;;;28.40;10.88;;;;;;;-8.82;100.00;102568.22;6057172;28;20091;-65
2022/12/18 02:31:13;;;;;;;43.00;13.50;;;;;;;-8.82;100.00;102582.78;6038946;28;20395;-66
2022/12/18 02:34:09;;;;;;;34.83;13.38;;;;;;;-8.90;100.00;102580.09;6038257;28;20049;-65
2022/12/18 02:37:08;;;;;;;29.10;12.20;;;;;;;-8.93;100.00;102582.63;6056909;28;20105;-67
2022/12/18 02:40:05;;;;;;;24.25;9.30;;;;;;;-8.97;100.00;102580.00;6038866;28;20037;-67
2022/12/18 02:43:08;;;;;;;36.90;13.30;;;;;;;-9.03;100.00;102583.34;6056222;28;20108;-67
2022/12/18 02:46:42;;;;;;;23.70;8.93;;;;;;;-9.08;100.00;102590.97;6056720;28;20479;-67
2022/12/18 02:50:05;;;;;;;31.67;12.75;;;;;;;-9.00;100.00;102578.25;6039279;28;20399;-64
2022/12/18 02:53:23;;;;;;;37.10;15.68;;;;;;;-8.92;100.00;102581.81;6038274;28;20045;-67
2022/12/18 02:56:22;;;;;;;19.00;7.53;;;;;;;-8.97;100.00;102570.59;6056318;28;20041;-65
2022/12/18 02:59:22;;;;;;;30.58;11.30;;;;;;;-9.07;100.00;102566.16;6056595;28;20037;-67
2022/12/18 03:02:26;;;;;;;33.72;12.68;;;;;;;-9.06;100.00;102588.44;6038260;28;20475;-66
2022/12/18 03:05:33;;;;;;;46.28;14.57;;;;;;;-9.15;100.00;102581.44;6055001;28;20548;-65
2022/12/18 03:08:31;;;;;;;32.47;13.13;;;;;;;-9.24;100.00;102575.31;6052015;28;20038;-64
2022/12/18 03:14:43;;;;;;;23.83;8.50;;;;;;;-9.41;100.00;102569.91;6052243;28;20041;-65
2022/12/18 03:17:42;;;;;;;25.25;10.30;;;;;;;-9.40;100.00;102571.63;6052317;28;20033;-64
2022/12/18 03:20:39;;;;;;;33.70;11.18;;;;;;;-9.40;100.00;102575.94;6052453;28;20541;-64
2022/12/18 03:23:40;;;;;;;35.38;12.88;;;;;;;-9.40;100.00;102575.94;6033453;28;20065;-64
2022/12/18 03:26:38;;;;;;;31.65;12.80;;;;;;;-9.47;100.00;102562.13;6051437;28;20037;-64
2022/12/18 03:29:37;;;;;;;37.40;14.82;;;;;;;-9.48;100.00;102557.81;6034457;28;20120;-65
2022/12/18 03:32:36;;;;;;;28.52;10.15;;;;;;;-9.42;100.00;102563.06;6050880;28;20034;-65
2022/12/18 03:35:35;;;;;;;25.25;9.95;;;;;;;-9.35;100.00;102569.16;6052221;28;20087;-64
2022/12/18 03:38:30;;;;;;;19.00;7.43;;;;;;;-9.42;100.00;102547.66;6050711;28;20053;-64
2022/12/18 03:41:31;;;;;;;34.57;12.33;;;;;;;-9.36;100.00;102563.16;6052217;28;20037;-64
2022/12/18 03:44:30;;;;;;;19.58;7.53;;;;;;;-9.45;100.00;102562.13;6033695;28;20033;-65
2022/12/18 03:47:29;;;;;;;29.42;11.20;;;;;;;-9.39;100.00;102562.22;6062281;28;20050;-66
2022/12/18 03:50:34;;;;;;;11.98;5.72;;;;;;;-9.44;100.00;102559.59;6051737;28;20061;-64
2022/12/18 03:53:39;;;;;;;21.48;9.43;;;;;;;-9.51;100.00;102550.06;6035015;28;20034;-66
2022/12/18 03:56:38;;;;;;;26.02;12.15;;;;;;;-9.46;100.00;102558.72;6051751;28;20034;-65
2022/12/18 03:59:35;;;;;;;32.80;12.35;;;;;;;-9.55;100.00;102547.44;6033966;28;20111;-66
2022/12/18 04:02:31;;;;;;;38.15;14.32;;;;;;;-9.60;100.00;102547.38;6033325;28;20706;-64
2022/12/18 04:05:27;;;;;;;14.15;6.32;;;;;;;-9.78;100.00;102527.38;6050182;28;20046;-64
2022/12/18 04:08:23;;;;;;;32.83;12.77;;;;;;;-9.66;100.00;102557.53;6033958;28;20394;-65
2022/12/18 04:11:18;;;;;;;19.92;8.50;;;;;;;-9.65;100.00;102555.81;6033849;28;20037;-65
2022/12/18 04:14:14;;;;;;;29.87;12.53;;;;;;;-9.73;100.00;102558.25;6049133;28;20026;-64
2022/12/18 04:17:09;;;;;;;32.00;11.93;;;;;;;-9.65;100.00;102569.53;6050854;28;20771;-65
2022/12/18 04:20:05;;;;;;;30.48;9.95;;;;;;;-9.67;100.00;102577.19;6050654;28;20057;-65
2022/12/18 04:23:00;;;;;;;12.63;5.53;;;;;;;-9.84;100.00;102562.34;6050019;28;20064;-65
2022/12/18 04:25:55;;;;;;;32.23;12.03;;;;;;;-9.72;100.00;102578.81;6051048;28;20084;-65
2022/12/18 04:28:51;;;;;;;31.37;11.40;;;;;;;-9.80;100.00;102569.25;6050730;28;20037;-65
2022/12/18 04:31:46;;;;;;;29.70;10.83;;;;;;;-9.77;100.00;102588.13;6050505;28;20042;-67
2022/12/18 04:34:41;;;;;;;29.30;10.80;;;;;;;-9.81;100.00;102583.75;6049494;28;20072;-64
2022/12/18 04:37:37;;;;;;;26.73;9.80;;;;;;;-9.81;100.00;102580.34;6050849;28;20479;-66
2022/12/18 04:40:32;;;;;;;17.30;8.53;;;;;;;-9.73;100.00;102571.94;6050707;28;20022;-65
2022/12/18 04:43:27;;;;;;;30.93;13.00;;;;;;;-9.74;100.00;102564.22;6049854;28;20471;-64
2022/12/18 04:46:22;;;;;;;40.53;15.53;;;;;;;-9.79;100.00;102576.97;6050611;28;20414;-64
2022/12/18 04:49:18;;;;;;;39.27;13.30;;;;;;;-9.83;100.00;102564.91;6050040;28;20026;-65
2022/12/18 04:52:13;;;;;;;26.93;10.83;;;;;;;-9.74;100.00;102577.91;6049296;28;20399;-65
2022/12/18 04:55:08;;;;;;;16.00;6.40;;;;;;;-9.81;100.00;102563.25;6050148;28;20037;-66
2022/12/18 04:58:04;;;;;;;29.27;8.90;;;;;;;-9.72;100.00;102557.41;6048957;28;20036;-65
2022/12/18 05:00:59;;;;;;;35.70;13.27;;;;;;;-9.65;100.00;102555.81;6050368;28;20025;-65
2022/12/18 05:03:55;;;;;;;27.48;10.38;;;;;;;-9.73;100.00;102548.84;6049159;28;20034;-64
2022/12/18 05:06:50;;;;;;;33.83;13.30;;;;;;;-9.79;100.00;102541.06;6049588;28;20053;-66
2022/12/18 05:09:45;;;;;;;21.23;8.60;;;;;;;-9.73;100.00;102556.53;6049850;28;20390;-65
2022/12/18 05:12:57;;;;;;;21.73;8.40;;;;;;;-9.74;100.00;102562.53;6049346;28;20144;-65
2022/12/18 05:15:53;;;;;;;24.90;9.65;;;;;;;-9.75;100.00;102568.47;6050053;28;20045;-64
2022/12/18 05:18:48;;;;;;;33.63;12.07;;;;;;;-9.77;100.00;102561.59;6049711;28;20034;-66
2022/12/18 05:21:43;;;;;;;26.80;10.07;;;;;;;-9.73;100.00;102582.19;6049133;28;20053;-65
2022/12/18 05:24:39;;;;;;;14.87;5.60;;;;;;;-9.85;100.00;102561.47;6049320;28;20033;-64
2022/12/18 05:27:34;;;;;;;17.60;8.07;;;;;;;-9.77;100.00;102590.69;6049943;28;20034;-65
2022/12/18 05:30:29;;;;;;;18.23;8.63;;;;;;;-9.80;100.00;102580.38;6049074;28;20280;-64
2022/12/18 05:33:26;;;;;;;15.67;6.77;;;;;;;-9.61;100.00;102583.25;6048526;28;20105;-66
2022/12/18 05:36:22;;;;;;;20.75;7.97;;;;;;;-9.39;100.00;102595.59;6049418;28;20034;-66
2022/12/18 05:39:17;;;;;;;32.67;11.07;;;;;;;-9.64;100.00;102575.50;6048897;28;20042;-65
2022/12/18 05:42:12;;;;;;;37.77;14.10;;;;;;;-9.85;100.00;102578.56;6048487;28;20054;-65
2022/12/18 05:45:08;;;;;;;41.67;12.13;;;;;;;-9.90;100.00;102572.50;6049530;28;20475;-65
2022/12/18 05:48:04;;;;;;;22.42;8.75;;;;;;;-9.85;100.00;102576.88;6048430;28;20042;-64
2022/12/18 05:51:07;;;;;;;35.58;10.05;;;;;;;-9.81;100.00;102588.06;6049062;28;20093;-66
2022/12/18 05:54:02;;;;;;;37.45;12.98;;;;;;;-9.78;100.00;102603.47;6048640;28;20030;-66
2022/12/18 05:56:58;;;;;;;26.23;10.13;;;;;;;-9.82;100.00;102600.00;6049465;28;20049;-66
2022/12/18 05:59:53;;;;;;;25.80;9.82;;;;;;;-9.82;100.00;102607.72;6031736;28;20026;-64
2022/12/18 06:02:49;;;;;;;25.07;10.60;;;;;;;-9.79;100.00;102615.47;6047945;28;20044;-65
2022/12/18 06:05:45;;;;;;;21.67;5.90;;;;;;;-9.78;100.00;102619.75;6049467;28;20438;-65
2022/12/18 06:08:40;;;;;;;23.33;9.00;;;;;;;-9.45;100.00;102641.69;6048987;28;20037;-66
2022/12/18 06:11:37;;;;;;;12.02;6.53;;;;;;;-9.50;100.00;102635.63;6049346;28;20386;-64
2022/12/18 06:14:32;;;;;;;29.75;11.77;;;;;;;-9.56;100.00;102632.94;6048332;28;20022;-66
2022/12/18 06:17:32;;;;;;;14.83;7.60;;;;;;;-9.87;100.00;102645.25;6049247;28;20034;-64
2022/12/18 06:20:27;;;;;;;28.25;10.13;;;;;;;-10.11;100.00;102639.66;6049257;28;20057;-64
2022/12/18 06:23:23;;;;;;;17.77;6.60;;;;;;;-10.09;100.00;102650.78;6047276;28;20038;-65
2022/12/18 06:26:18;;;;;;;12.48;5.60;;;;;;;-10.18;100.00;102636.94;6049315;28;20034;-66
2022/12/18 06:29:13;;;;;;;16.87;5.53;;;;;;;-10.11;100.00;102647.34;6048364;28;20041;-66
2022/12/18 06:32:09;;;;;;;25.77;9.27;;;;;;;-10.15;100.00;102643.00;6048353;28;20026;-64
2022/12/18 06:35:04;;;;;;;22.80;9.40;;;;;;;-10.33;100.00;102632.38;6049105;28;20045;-66
2022/12/18 06:38:01;;;;;;;17.90;7.47;;;;;;;-10.30;100.00;102637.56;6048701;28;20262;-65
2022/12/18 06:40:57;;;;;;;30.02;12.25;;;;;;;-10.33;100.00;102645.19;6050018;28;20037;-64
2022/12/18 06:43:52;;;;;;;20.93;9.87;;;;;;;-10.34;100.00;102641.75;6052529;28;20030;-66
2022/12/18 06:46:47;;;;;;;19.97;8.40;;;;;;;-10.36;100.00;102633.19;6053469;28;20042;-66
2022/12/18 06:49:43;;;;;;;37.77;15.43;;;;;;;-10.57;100.00;102619.88;6053130;28;20034;-64
2022/12/18 06:52:40;;;;;;;20.95;8.13;;;;;;;-10.44;100.00;102636.41;6052192;28;20030;-64
2022/12/18 06:55:35;;;;;;;36.67;13.80;;;;;;;-10.41;100.00;102631.34;6053237;28;20595;-65
2022/12/18 06:58:30;;;;;;;21.77;8.80;;;;;;;-10.37;100.00;102625.44;6052981;28;20092;-65
2022/12/18 07:01:26;;;;;;;30.40;9.53;;;;;;;-10.31;100.00;102623.00;6056542;28;20089;-66
2022/12/18 07:04:21;;;;;;;31.75;11.95;;;;;;;-10.19;100.00;102638.63;6051874;28;20040;-65
2022/12/18 07:07:17;;;;;;;39.23;14.70;;;;;;;-10.19;100.00;102636.06;6053256;28;20034;-65
2022/12/18 07:10:12;;;;;;;29.52;10.32;;;;;;;-10.17;100.00;102634.41;6052815;28;20285;-66
2022/12/18 07:13:07;;;;;;;44.77;14.83;;;;;;;-10.17;100.00;102636.97;6051606;28;20065;-66
2022/12/18 07:16:09;;;;;;;36.57;13.77;;;;;;;-10.08;100.00;102652.50;6052542;28;20034;-65
2022/12/18 07:19:05;;;;;;;25.73;11.07;;;;;;;-10.16;100.00;102637.84;6052610;28;20065;-66
2022/12/18 07:22:00;;;;;;;27.33;10.53;;;;;;;-10.20;100.00;102639.47;6051774;28;20041;-64
2022/12/18 07:24:56;;;;;;;34.28;13.45;;;;;;;-10.23;100.00;102652.22;6052605;28;20038;-64
2022/12/18 07:27:51;;;;;;;22.87;9.43;;;;;;;-10.26;100.00;102659.00;6052200;28;20038;-66
2022/12/18 07:30:46;;;;;;;21.10;7.80;;;;;;;-10.28;100.00;102669.22;6051843;28;20069;-66
2022/12/18 07:33:42;;;;;;;24.23;9.00;;;;;;;-10.27;100.00;102660.69;6051312;28;20075;-65
2022/12/18 07:36:37;;;;;;;38.75;15.90;;;;;;;-10.22;nan;102671.06;6052420;28;20021;-64
2022/12/18 07:39:32;;;;;;;13.17;6.70;;;;;;;-10.31;100.00;102664.91;6052184;28;20034;-65
2022/12/18 07:42:30;;;;;;;32.63;12.27;;;;;;;-10.18;100.00;102689.09;6051336;28;20032;-68
2022/12/18 07:45:25;;;;;;;32.90;13.15;;;;;;;-10.19;100.00;102689.91;6051767;28;20096;-64
2022/12/18 07:48:21;;;;;;;21.63;8.20;;;;;;;-10.12;100.00;102678.94;6051776;28;20046;-66
2022/12/18 07:51:17;;;;;;;24.87;11.10;;;;;;;-10.09;100.00;102673.00;6051472;28;20030;-67
2022/12/18 07:54:12;;;;;;;31.77;12.27;;;;;;;-9.91;100.00;102697.31;6049938;28;20283;-66
2022/12/18 07:57:08;;;;;;;27.73;11.03;;;;;;;-9.90;100.00;102704.19;6051230;28;20034;-67
2022/12/18 08:00:04;;;;;;;31.48;13.90;;;;;;;-9.89;100.00;102697.34;6051170;28;20414;-65
2022/12/18 08:02:59;;;;;;;24.75;9.50;;;;;;;-9.92;100.00;102705.81;6050405;28;20041;-66
2022/12/18 08:06:01;;;;;;;25.03;10.33;;;;;;;-9.86;100.00;102698.25;6051540;28;20495;-65
2022/12/18 08:08:58;;;;;;;26.23;11.00;;;;;;;-9.80;100.00;102690.69;6051423;28;20029;-65
2022/12/18 08:11:54;;;;;;;27.05;12.10;;;;;;;-9.78;100.00;102686.44;6050905;28;20113;-66
2022/12/18 08:14:49;;;;;;;28.38;11.75;;;;;;;-9.67;100.00;102678.94;6051299;28;20033;-66
2022/12/18 08:17:44;;;;;;;26.73;10.67;;;;;;;-9.59;100.00;102689.38;6050668;28;20048;-67
2022/12/18 08:20:39;;;;;;;32.60;13.03;;;;;;;-9.52;100.00;102673.25;6050616;28;20037;-66
2022/12/18 08:23:35;;;;;;;29.27;9.87;;;;;;;-9.51;100.00;102659.59;6050257;28;20117;-66
2022/12/18 08:26:31;;;;;;;19.08;7.32;;;;;;;-9.35;100.00;102659.03;6051256;28;20029;-67
2022/12/18 08:29:26;;;;;;;25.35;7.82;;;;;;;-9.20;100.00;102651.56;6051017;28;20137;-67
2022/12/18 08:32:22;;;;;;;30.40;10.53;;;;;;;-8.98;100.00;102642.50;6049902;28;20184;-67
2022/12/18 08:35:17;;;;;;;32.10;12.35;;;;;;;-8.83;100.00;102635.03;6050614;28;20553;-67
2022/12/18 08:38:12;;;;;;;26.07;9.03;;;;;;;-8.51;100.00;102652.66;6050817;28;20035;-67
2022/12/18 08:41:10;;;;;;;11.20;4.93;;;;;;;-8.42;100.00;102648.47;6051055;28;20225;-67
2022/12/18 08:47:21;;;;;;;31.60;10.68;;;;;;;-8.14;99.68;102648.81;6050788;28;20124;-67
2022/12/18 08:50:16;;;;;;;17.70;8.83;;;;;;;-8.13;98.96;102641.94;6050072;28;20034;-67
2022/12/18 08:53:11;;;;;;;17.70;7.85;;;;;;;-8.08;98.51;102637.72;6049661;28;20042;-67
2022/12/18 08:56:07;;;;;;;17.57;7.20;;;;;;;-8.03;98.02;102643.78;6050596;28;20034;-68
2022/12/18 08:59:04;;;;;;;34.28;11.18;;;;;;;-8.00;97.56;102641.25;6050376;28;20040;-68
2022/12/18 09:01:59;;;;;;;34.72;13.50;;;;;;;-8.03;97.65;102625.75;6049537;28;20032;-68
2022/12/18 09:04:54;;;;;;;22.17;11.10;;;;;;;-7.83;97.67;102619.16;6049475;28;20391;-69
2022/12/18 09:07:49;;;;;;;40.20;14.17;;;;;;;-7.72;97.09;102619.25;6049808;28;20462;-69
2022/12/18 09:10:46;;;;;;;24.57;12.00;;;;;;;-7.67;96.62;102613.31;6048414;28;20044;-68
2022/12/18 09:13:41;;;;;;;29.85;10.40;;;;;;;-7.49;95.91;102626.34;6047595;28;20045;-70
2022/12/18 09:16:37;;;;;;;32.03;13.10;;;;;;;-7.53;95.77;102623.72;6049501;28;20033;-69
2022/12/18 09:19:32;;;;;;;33.33;12.63;;;;;;;-7.50;96.28;102609.16;6048935;28;20041;-71
2022/12/18 09:22:27;;;;;;;25.43;10.50;;;;;;;-7.28;96.35;102623.94;6048368;28;20113;-70
2022/12/18 09:25:23;;;;;;;34.73;14.53;;;;;;;-7.15;96.04;102614.63;6049212;28;20029;-71
2022/12/18 09:28:19;;;;;;;34.80;11.87;;;;;;;-7.03;95.82;102612.13;6048537;28;20498;-70
2022/12/18 09:31:15;;;;;;;40.30;14.70;;;;;;;-6.99;95.21;102594.97;6049350;28;20529;-71
2022/12/18 09:34:10;;;;;;;38.55;11.38;;;;;;;-6.70;94.88;102611.47;6030818;28;20041;-73
2022/12/18 09:37:05;;;;;;;33.10;9.63;;;;;;;-6.57;93.93;102609.81;6049355;28;20065;-70
2022/12/18 09:40:00;;;;;;;30.43;11.57;;;;;;;-6.52;92.46;102616.75;6049013;28;20041;-71
2022/12/18 09:42:59;;;;;;;33.10;13.20;;;;;;;-6.45;92.53;102600.44;6048365;28;20095;-72
2022/12/18 09:45:59;;;;;;;31.90;12.32;;;;;;;-6.37;92.50;102598.78;6049479;28;20449;-75
2022/12/18 09:48:57;;;;;;;21.23;7.55;;;;;;;-6.28;91.77;102596.25;6047125;28;20501;-73
2022/12/18 09:52:00;;;;;;;17.48;9.13;;;;;;;-6.12;91.75;102592.84;6030611;28;20475;-73
2022/12/18 09:55:30;;;;;;;30.42;10.90;;;;;;;-5.78;91.87;102603.22;6049054;28;20034;-73
2022/12/18 09:58:53;;;;;;;31.88;12.82;;;;;;;-5.72;90.38;102598.94;6048203;28;20044;-73
2022/12/18 10:01:48;;;;;;;27.63;10.35;;;;;;;-5.63;90.64;102608.44;6030881;28;20080;-72
2022/12/18 10:05:05;;;;;;;14.90;7.20;;;;;;;-5.50;90.11;102605.88;6048403;28;20471;-72
2022/12/18 10:08:19;;;;;;;24.80;8.65;;;;;;;-5.37;89.78;102611.91;6031191;28;20072;-71
2022/12/18 10:11:21;;;;;;;26.33;11.25;;;;;;;-5.36;89.34;102607.59;6048674;28;20041;-72
2022/12/18 10:14:43;;;;;;;21.80;8.68;;;;;;;-5.29;89.75;102599.84;6059237;28;20037;-71
2022/12/18 10:17:51;;;;;;;18.95;7.70;;;;;;;-5.10;89.14;102627.41;6067818;28;20120;-71
2022/12/18 10:20:49;;;;;;;23.83;8.88;;;;;;;-5.22;89.29;102622.25;6042542;28;20441;-71
2022/12/18 10:24:26;;;;;;;22.20;7.03;;;;;;;-5.02;89.33;102636.03;6043017;28;20033;-71
2022/12/18 10:27:23;;;;;;;21.85;9.98;;;;;;;-4.95;88.78;102606.72;6053032;28;20410;-71
2022/12/18 10:30:21;;;;;;;22.75;8.50;;;;;;;-4.91;88.55;102618.78;6051762;28;20053;-71
2022/12/18 10:33:21;;;;;;;22.42;7.93;;;;;;;-4.87;87.77;102615.34;6052527;28;20022;-72
2022/12/18 10:36:16;;;;;;;26.50;10.27;;;;;;;-4.99;88.17;102612.75;6053240;28;20033;-71
2022/12/18 10:39:16;;;;;;;21.17;7.93;;;;;;;-5.00;88.22;102628.28;6053043;28;20498;-72
2022/12/18 10:42:19;;;;;;;39.58;11.98;;;;;;;-5.12;88.31;102607.59;6052466;28;20025;-71
2022/12/18 10:45:17;;;;;;;27.88;10.77;;;;;;;-4.99;89.26;102625.69;6052512;28;20041;-72
2022/12/18 10:48:21;;;;;;;19.13;9.52;;;;;;;-4.89;89.07;102626.53;6052864;28;20037;-71
2022/12/18 10:51:26;;;;;;;13.65;6.55;;;;;;;-4.90;88.47;102617.06;6035610;28;20028;-72
2022/12/18 10:54:23;;;;;;;25.30;7.60;;;;;;;-4.89;88.81;102596.34;6035137;28;20541;-71
2022/12/18 10:57:32;;;;;;;26.23;9.43;;;;;;;-4.83;88.78;102606.69;6051767;28;20096;-71
2022/12/18 11:00:30;;;;;;;20.63;7.03;;;;;;;-4.78;88.91;102587.72;6051481;28;20034;-71
2022/12/18 11:03:31;;;;;;;17.75;7.47;;;;;;;-4.77;88.62;102594.63;6051764;28;20053;-72
2022/12/18 11:06:26;;;;;;;31.67;12.00;;;;;;;-5.03;88.83;102585.16;6052969;28;20093;-72
2022/12/18 11:09:24;;;;;;;24.08;9.15;;;;;;;-4.93;89.38;102597.25;6052954;28;20037;-71
2022/12/18 11:12:22;;;;;;;20.15;8.38;;;;;;;-4.91;89.98;102572.22;6051448;28;20040;-72
2022/12/18 11:15:26;;;;;;;29.40;9.43;;;;;;;-4.65;89.77;102579.06;6051938;28;20030;-72
2022/12/18 11:18:26;;;;;;;29.35;9.55;;;;;;;-4.54;88.90;102579.91;6018607;28;20053;-71
2022/12/18 11:21:21;;;;;;;25.10;9.65;;;;;;;-4.54;89.98;102562.63;6053191;28;20037;-71
2022/12/18 11:24:21;;;;;;;16.17;6.83;;;;;;;-4.37;89.11;102554.78;6051992;28;20542;-72
2022/12/18 11:27:18;;;;;;;28.65;10.48;;;;;;;-4.28;88.12;102559.94;6050186;28;20088;-72
2022/12/18 11:30:21;;;;;;;30.08;7.63;;;;;;;-4.17;87.51;102586.66;6035010;28;20429;-72
2022/12/18 11:33:21;;;;;;;24.05;7.90;;;;;;;-4.25;87.41;102559.94;6051669;28;20038;-72
2022/12/18 11:36:17;;;;;;;23.25;8.48;;;;;;;-4.44;87.45;102574.69;6051017;28;20042;-72
2022/12/18 11:39:35;;;;;;;26.13;9.07;;;;;;;-4.52;87.44;102576.44;6051129;28;20022;-72
2022/12/18 11:42:30;;;;;;;13.65;8.48;;;;;;;-4.34;87.96;102585.84;6051653;28;20026;-72
2022/12/18 11:45:28;;;;;;;26.93;9.47;;;;;;;-4.17;87.28;102573.69;6052229;28;20034;-73
2022/12/18 11:48:41;;;;;;;21.90;7.90;;;;;;;-4.17;85.98;102573.69;6052067;28;20553;-73
2022/12/18 11:51:51;;;;;;;15.73;5.53;;;;;;;-4.07;86.51;102575.38;6050657;28;20164;-72
2022/12/18 11:54:50;;;;;;;23.27;8.52;;;;;;;-3.98;85.86;102580.50;6051874;28;20041;-72
2022/12/18 11:58:18;;;;;;;19.67;7.03;;;;;;;-3.89;85.76;102569.25;6052025;28;20050;-71
2022/12/18 12:01:16;;;;;;;;;;;;;;;-3.82;85.40;102564.00;6007890;28;20042;-71
2022/12/18 12:04:39;;;;;;;12.68;5.82;;;;;;;-3.83;84.92;102553.66;6051250;28;20412;-73
2022/12/18 12:07:51;;;;;;;17.35;7.15;;;;;;;-3.91;85.05;102545.91;6051509;28;20541;-71
2022/12/18 12:11:07;;;;;;;26.42;9.63;;;;;;;-3.79;85.96;102540.66;6051413;28;20034;-72
2022/12/18 12:14:27;;;;;;;18.83;6.03;;;;;;;-3.62;85.78;102528.47;6033033;28;20428;-73
2022/12/18 12:17:42;;;;;;;16.30;6.07;;;;;;;-3.62;85.28;102527.59;6051108;28;20037;-71
2022/12/18 12:21:06;;;;;;;18.70;6.28;;;;;;;-3.63;85.27;102516.34;6045763;28;20406;-73
2022/12/18 12:24:14;;;;;;;21.42;8.27;;;;;;;-3.69;85.12;102492.22;6048095;28;20065;-73
2022/12/18 12:27:19;;;;;;;14.30;5.20;;;;;;;-3.48;85.20;102493.78;6027686;28;20391;-72
2022/12/18 12:30:21;;;;;;;27.65;9.30;;;;;;;-3.42;84.43;102497.16;6033084;28;20045;-72
2022/12/18 12:33:28;;;;;;;26.80;9.23;;;;;;;-3.42;84.98;102483.34;6026277;28;20050;-72
2022/12/18 12:36:32;;;;;;;30.35;9.93;;;;;;;-3.64;85.18;102472.28;6039734;28;20038;-72
2022/12/18 12:39:31;;;;;;;28.02;10.68;;;;;;;-3.64;86.46;102472.28;6047588;28;20029;-73
2022/12/18 12:45:53;;;;;;;41.20;15.65;;;;;;;-3.59;87.65;102478.31;6046165;28;20431;-73
2022/12/18 12:49:14;;;;;;;67.70;21.85;;;;;;;-3.63;87.48;102459.34;6049955;28;20038;-72
2022/12/18 12:52:15;;;;;;;26.73;9.65;;;;;;;-3.51;87.39;102463.56;6043608;28;20037;-73
2022/12/18 12:55:29;;;;;;;42.35;15.07;;;;;;;-3.58;87.84;102437.69;6032855;28;20034;-72
2022/12/18 12:58:48;;;;;;;26.77;10.60;;;;;;;-3.55;88.69;102432.47;6044927;28;20033;-73
2022/12/18 13:01:57;;;;;;;24.52;8.73;;;;;;;-3.58;88.80;102427.31;6043093;28;20025;-73
2022/12/18 13:05:01;;;;;;;27.08;8.05;;;;;;;-3.59;89.35;102428.22;6046020;28;20038;-73
2022/12/18 13:08:00;;;;;;;19.13;6.78;;;;;;;-3.56;89.58;102435.97;6032929;28;20053;-73
2022/12/18 13:14:22;;;;;;;14.93;6.88;;;;;;;-3.54;90.66;102447.16;6040995;28;20042;-73
2022/12/18 13:17:17;;;;;;;24.55;8.80;;;;;;;-3.50;90.88;102443.66;6028168;28;20045;-73
2022/12/18 13:20:14;;;;;;;20.20;7.13;;;;;;;-3.45;90.81;102439.31;6049779;28;20088;-73
2022/12/18 13:23:24;;;;;;;25.52;8.27;;;;;;;-3.44;91.79;102428.06;6029529;28;20038;-73
2022/12/18 13:26:22;;;;;;;22.58;7.30;;;;;;;-3.39;91.05;102431.44;6049598;28;20038;-73
2022/12/18 13:29:41;;;;;;;20.45;7.63;;;;;;;-3.44;91.22;102418.53;6049876;28;20475;-72
2022/12/18 13:32:37;;;;;;;25.42;8.80;;;;;;;-3.44;91.58;102428.91;6047565;28;20426;-72
2022/12/18 13:35:39;;;;;;;26.63;10.07;;;;;;;-3.44;91.41;102438.41;6046935;28;20084;-72
2022/12/18 13:38:36;;;;;;;28.70;9.95;;;;;;;-3.49;91.69;102433.28;6042658;28;20105;-71
2022/12/18 13:41:31;;;;;;;17.80;6.85;;;;;;;-3.40;90.69;102450.50;6048527;28;20112;-73
2022/12/18 13:44:39;;;;;;;18.50;8.13;;;;;;;-3.38;90.26;102433.19;6034356;28;20080;-73
2022/12/18 13:47:40;;;;;;;21.90;7.65;;;;;;;-3.40;89.86;102414.19;6061916;28;20030;-72